sensor_id;sensor_type;location;lat;lon;timestamp;temperature;humidity
4811;DHT22;2419;51.276;6.472;2022-11-18T00:01:37;8.60;99.90
4811;DHT22;2419;51.276;6.472;2022-11-18T00:04:06;8.50;99.90
4811;DHT22;2419;51.276;6.472;2022-11-18T00:06:35;8.50;99.90
4811;DHT22;2419;51.276;6.472;2022-11-18T00:09:03;8.40;99.90
4811;DHT22;2419;51.276;6.472;2022-11-18T00:11:31;8.30;99.90
4811;DHT22;2419;51.276;6.472;2022-11-18T00:14:19;8.30;99.90
4811;DHT22;2419;51.276;6.472;2022-11-18T00:16:50;8.20;99.90
4811;DHT22;2419;51.276;6.472;2022-11-18T00:19:22;8.20;99.90
4811;DHT22;2419;51.276;6.472;2022-11-18T00:21:51;8.20;99.90
4811;DHT22;2419;51.276;6.472;2022-11-18T00:24:20;8.20;99.90
4811;DHT22;2419;51.276;6.472;2022-11-18T00:26:48;8.30;99.90
4811;DHT22;2419;51.276;6.472;2022-11-18T00:29:17;8.40;99.90
4811;DHT22;2419;51.276;6.472;2022-11-18T00:31:46;8.40;99.90
4811;DHT22;2419;51.276;6.472;2022-11-18T00:34:16;8.30;99.90
4811;DHT22;2419;51.276;6.472;2022-11-18T00:36:46;8.40;99.90
4811;DHT22;2419;51.276;6.472;2022-11-18T00:39:16;8.40;99.90
4811;DHT22;2419;51.276;6.472;2022-11-18T00:41:46;8.40;99.90
4811;DHT22;2419;51.276;6.472;2022-11-18T00:44:37;8.50;99.90
4811;DHT22;2419;51.276;6.472;2022-11-18T00:47:05;8.50;99.90
4811;DHT22;2419;51.276;6.472;2022-11-18T00:49:33;8.50;99.90
4811;DHT22;2419;51.276;6.472;2022-11-18T00:54:46;8.60;99.90
4811;DHT22;2419;51.276;6.472;2022-11-18T00:57:15;8.60;99.90
4811;DHT22;2419;51.276;6.472;2022-11-18T00:59:43;8.50;99.90
4811;DHT22;2419;51.276;6.472;2022-11-18T01:02:11;8.60;99.90
4811;DHT22;2419;51.276;6.472;2022-11-18T01:04:39;8.60;99.90
4811;DHT22;2419;51.276;6.472;2022-11-18T01:07:07;8.50;99.90
4811;DHT22;2419;51.276;6.472;2022-11-18T01:09:35;8.50;99.90
4811;DHT22;2419;51.276;6.472;2022-11-18T01:12:05;8.60;99.90
4811;DHT22;2419;51.276;6.472;2022-11-18T01:14:51;8.60;99.90
4811;DHT22;2419;51.276;6.472;2022-11-18T01:17:19;8.60;99.90
4811;DHT22;2419;51.276;6.472;2022-11-18T01:19:47;8.70;99.90
4811;DHT22;2419;51.276;6.472;2022-11-18T01:22:15;8.70;99.90
4811;DHT22;2419;51.276;6.472;2022-11-18T01:24:44;8.80;99.90
4811;DHT22;2419;51.276;6.472;2022-11-18T01:27:13;8.70;99.90
4811;DHT22;2419;51.276;6.472;2022-11-18T01:29:42;8.70;99.90
4811;DHT22;2419;51.276;6.472;2022-11-18T01:32:10;8.70;99.90
4811;DHT22;2419;51.276;6.472;2022-11-18T01:34:53;8.80;99.90
4811;DHT22;2419;51.276;6.472;2022-11-18T01:37:22;8.80;99.90
4811;DHT22;2419;51.276;6.472;2022-11-18T01:39:50;8.80;99.90
4811;DHT22;2419;51.276;6.472;2022-11-18T01:42:19;8.80;99.90
4811;DHT22;2419;51.276;6.472;2022-11-18T01:45:04;8.80;99.90
4811;DHT22;2419;51.276;6.472;2022-11-18T01:47:39;8.80;99.90
4811;DHT22;2419;51.276;6.472;2022-11-18T01:50:09;8.70;99.90
4811;DHT22;2419;51.276;6.472;2022-11-18T01:52:38;8.70;99.90
4811;DHT22;2419;51.276;6.472;2022-11-18T01:55:11;8.80;99.90
4811;DHT22;2419;51.276;6.472;2022-11-18T01:57:42;8.70;99.90
4811;DHT22;2419;51.276;6.472;2022-11-18T02:00:12;8.70;99.90
4811;DHT22;2419;51.276;6.472;2022-11-18T02:02:41;8.70;99.90
4811;DHT22;2419;51.276;6.472;2022-11-18T02:05:10;8.70;99.90
4811;DHT22;2419;51.276;6.472;2022-11-18T02:07:40;8.80;99.90
4811;DHT22;2419;51.276;6.472;2022-11-18T02:10:18;8.70;99.90
4811;DHT22;2419;51.276;6.472;2022-11-18T02:12:49;8.80;99.90
4811;DHT22;2419;51.276;6.472;2022-11-18T02:15:19;8.70;99.90
4811;DHT22;2419;51.276;6.472;2022-11-18T02:17:56;8.80;99.90
4811;DHT22;2419;51.276;6.472;2022-11-18T02:20:31;8.80;99.90
4811;DHT22;2419;51.276;6.472;2022-11-18T02:26:37;8.60;99.90
4811;DHT22;2419;51.276;6.472;2022-11-18T02:29:23;8.60;99.90
4811;DHT22;2419;51.276;6.472;2022-11-18T02:31:57;8.60;99.90
4811;DHT22;2419;51.276;6.472;2022-11-18T02:34:37;8.60;99.90
4811;DHT22;2419;51.276;6.472;2022-11-18T02:37:13;8.60;99.90
4811;DHT22;2419;51.276;6.472;2022-11-18T02:39:46;8.60;99.90
4811;DHT22;2419;51.276;6.472;2022-11-18T02:42:16;8.70;99.90
4811;DHT22;2419;51.276;6.472;2022-11-18T02:44:50;8.70;99.90
4811;DHT22;2419;51.276;6.472;2022-11-18T02:47:20;8.70;99.90
4811;DHT22;2419;51.276;6.472;2022-11-18T02:49:51;8.70;99.90
4811;DHT22;2419;51.276;6.472;2022-11-18T02:52:22;8.70;99.90
4811;DHT22;2419;51.276;6.472;2022-11-18T02:54:52;8.70;99.90
4811;DHT22;2419;51.276;6.472;2022-11-18T02:57:23;8.70;99.90
4811;DHT22;2419;51.276;6.472;2022-11-18T02:59:53;8.70;99.90
4811;DHT22;2419;51.276;6.472;2022-11-18T03:02:22;8.60;99.90
4811;DHT22;2419;51.276;6.472;2022-11-18T03:04:52;8.60;99.90
4811;DHT22;2419;51.276;6.472;2022-11-18T03:07:26;8.60;99.90
4811;DHT22;2419;51.276;6.472;2022-11-18T03:09:56;8.60;99.90
4811;DHT22;2419;51.276;6.472;2022-11-18T03:12:30;8.60;99.90
4811;DHT22;2419;51.276;6.472;2022-11-18T03:15:08;8.60;99.90
4811;DHT22;2419;51.276;6.472;2022-11-18T03:17:46;8.50;99.90
4811;DHT22;2419;51.276;6.472;2022-11-18T03:20:21;8.50;99.90
4811;DHT22;2419;51.276;6.472;2022-11-18T03:22:55;8.50;99.90
4811;DHT22;2419;51.276;6.472;2022-11-18T03:25:30;8.50;99.90
4811;DHT22;2419;51.276;6.472;2022-11-18T03:31:11;8.50;99.90
4811;DHT22;2419;51.276;6.472;2022-11-18T03:33:44;8.50;99.90
4811;DHT22;2419;51.276;6.472;2022-11-18T03:36:16;8.40;99.90
4811;DHT22;2419;51.276;6.472;2022-11-18T03:38:47;8.50;99.90
4811;DHT22;2419;51.276;6.472;2022-11-18T03:41:18;8.50;99.90
4811;DHT22;2419;51.276;6.472;2022-11-18T03:43:50;8.50;99.90
4811;DHT22;2419;51.276;6.472;2022-11-18T03:46:24;8.50;99.90
4811;DHT22;2419;51.276;6.472;2022-11-18T03:48:55;8.50;99.90
4811;DHT22;2419;51.276;6.472;2022-11-18T03:51:31;8.50;99.90
4811;DHT22;2419;51.276;6.472;2022-11-18T03:54:02;8.50;99.90
4811;DHT22;2419;51.276;6.472;2022-11-18T03:56:37;8.60;99.90
4811;DHT22;2419;51.276;6.472;2022-11-18T04:02:10;8.60;99.90
4811;DHT22;2419;51.276;6.472;2022-11-18T04:04:41;8.60;99.90
4811;DHT22;2419;51.276;6.472;2022-11-18T04:07:16;8.60;99.90
4811;DHT22;2419;51.276;6.472;2022-11-18T04:09:52;8.70;99.90
4811;DHT22;2419;51.276;6.472;2022-11-18T04:12:22;8.70;99.90
4811;DHT22;2419;51.276;6.472;2022-11-18T04:14:53;8.60;99.90
4811;DHT22;2419;51.276;6.472;2022-11-18T04:17:26;8.60;99.90
4811;DHT22;2419;51.276;6.472;2022-11-18T04:19:55;8.60;99.90
4811;DHT22;2419;51.276;6.472;2022-11-18T04:22:23;8.70;99.90
4811;DHT22;2419;51.276;6.472;2022-11-18T04:24:51;8.70;99.90
4811;DHT22;2419;51.276;6.472;2022-11-18T04:27:19;8.70;99.90
4811;DHT22;2419;51.276;6.472;2022-11-18T04:29:47;8.70;99.90
4811;DHT22;2419;51.276;6.472;2022-11-18T04:32:15;8.60;99.90
4811;DHT22;2419;51.276;6.472;2022-11-18T04:34:45;8.50;99.90
4811;DHT22;2419;51.276;6.472;2022-11-18T04:37:13;8.50;99.90
4811;DHT22;2419;51.276;6.472;2022-11-18T04:39:41;8.50;99.90
4811;DHT22;2419;51.276;6.472;2022-11-18T04:42:09;8.50;99.90
4811;DHT22;2419;51.276;6.472;2022-11-18T04:44:38;8.50;99.90
4811;DHT22;2419;51.276;6.472;2022-11-18T04:50:05;8.60;99.90
4811;DHT22;2419;51.276;6.472;2022-11-18T04:52:34;8.60;99.90
4811;DHT22;2419;51.276;6.472;2022-11-18T04:55:02;8.70;99.90
4811;DHT22;2419;51.276;6.472;2022-11-18T04:57:30;8.70;99.90
4811;DHT22;2419;51.276;6.472;2022-11-18T04:59:58;8.70;99.90
4811;DHT22;2419;51.276;6.472;2022-11-18T05:02:26;8.70;99.90
4811;DHT22;2419;51.276;6.472;2022-11-18T05:04:54;8.80;99.90
4811;DHT22;2419;51.276;6.472;2022-11-18T05:07:24;8.80;99.90
4811;DHT22;2419;51.276;6.472;2022-11-18T05:09:52;8.80;99.90
4811;DHT22;2419;51.276;6.472;2022-11-18T05:12:21;8.80;99.90
4811;DHT22;2419;51.276;6.472;2022-11-18T05:15:08;8.90;99.90
4811;DHT22;2419;51.276;6.472;2022-11-18T05:17:36;8.90;99.90
4811;DHT22;2419;51.276;6.472;2022-11-18T05:20:05;8.90;99.90
4811;DHT22;2419;51.276;6.472;2022-11-18T05:22:35;8.90;99.90
4811;DHT22;2419;51.276;6.472;2022-11-18T05:25:03;8.90;99.90
4811;DHT22;2419;51.276;6.472;2022-11-18T05:27:32;8.90;99.90
4811;DHT22;2419;51.276;6.472;2022-11-18T05:35:38;9.00;99.90
4811;DHT22;2419;51.276;6.472;2022-11-18T05:41:06;8.90;99.90
4811;DHT22;2419;51.276;6.472;2022-11-18T05:43:35;9.00;99.90
4811;DHT22;2419;51.276;6.472;2022-11-18T05:46:03;8.90;99.90
4811;DHT22;2419;51.276;6.472;2022-11-18T05:48:31;9.00;99.90
4811;DHT22;2419;51.276;6.472;2022-11-18T05:50:59;8.90;99.90
4811;DHT22;2419;51.276;6.472;2022-11-18T05:53:27;9.00;99.90
4811;DHT22;2419;51.276;6.472;2022-11-18T05:55:59;9.10;99.90
4811;DHT22;2419;51.276;6.472;2022-11-18T05:58:29;9.20;99.90
4811;DHT22;2419;51.276;6.472;2022-11-18T06:01:01;9.10;99.90
4811;DHT22;2419;51.276;6.472;2022-11-18T06:03:31;9.10;99.90
4811;DHT22;2419;51.276;6.472;2022-11-18T06:06:02;9.20;99.90
4811;DHT22;2419;51.276;6.472;2022-11-18T06:08:34;9.10;99.90
4811;DHT22;2419;51.276;6.472;2022-11-18T06:11:06;9.10;99.90
4811;DHT22;2419;51.276;6.472;2022-11-18T06:13:40;9.20;99.90
4811;DHT22;2419;51.276;6.472;2022-11-18T06:19:02;9.10;99.90
4811;DHT22;2419;51.276;6.472;2022-11-18T06:21:31;9.10;99.90
4811;DHT22;2419;51.276;6.472;2022-11-18T06:24:00;9.00;99.90
4811;DHT22;2419;51.276;6.472;2022-11-18T06:26:29;9.10;99.90
4811;DHT22;2419;51.276;6.472;2022-11-18T06:28:59;9.10;99.90
4811;DHT22;2419;51.276;6.472;2022-11-18T06:31:27;9.10;99.90
4811;DHT22;2419;51.276;6.472;2022-11-18T06:33:55;9.10;99.90
4811;DHT22;2419;51.276;6.472;2022-11-18T06:36:23;9.10;99.90
4811;DHT22;2419;51.276;6.472;2022-11-18T06:38:51;9.10;99.90
4811;DHT22;2419;51.276;6.472;2022-11-18T06:41:19;9.00;99.90
4811;DHT22;2419;51.276;6.472;2022-11-18T06:43:47;9.00;99.90
4811;DHT22;2419;51.276;6.472;2022-11-18T06:46:16;9.00;99.90
4811;DHT22;2419;51.276;6.472;2022-11-18T06:49:02;9.00;99.90
4811;DHT22;2419;51.276;6.472;2022-11-18T06:51:30;8.90;99.90
4811;DHT22;2419;51.276;6.472;2022-11-18T06:53:59;8.90;99.90
4811;DHT22;2419;51.276;6.472;2022-11-18T06:56:34;8.90;99.90
4811;DHT22;2419;51.276;6.472;2022-11-18T06:59:03;8.80;99.90
4811;DHT22;2419;51.276;6.472;2022-11-18T07:01:35;8.80;99.90
4811;DHT22;2419;51.276;6.472;2022-11-18T07:04:04;8.70;99.90
4811;DHT22;2419;51.276;6.472;2022-11-18T07:06:33;8.70;99.90
4811;DHT22;2419;51.276;6.472;2022-11-18T07:09:05;8.70;99.90
4811;DHT22;2419;51.276;6.472;2022-11-18T07:11:33;8.70;99.90
4811;DHT22;2419;51.276;6.472;2022-11-18T07:14:04;8.70;99.90
4811;DHT22;2419;51.276;6.472;2022-11-18T07:16:34;8.70;99.90
4811;DHT22;2419;51.276;6.472;2022-11-18T07:19:07;8.70;99.90
4811;DHT22;2419;51.276;6.472;2022-11-18T07:21:36;8.70;99.90
4811;DHT22;2419;51.276;6.472;2022-11-18T07:24:06;8.80;99.90
4811;DHT22;2419;51.276;6.472;2022-11-18T07:26:34;8.70;99.90
4811;DHT22;2419;51.276;6.472;2022-11-18T07:29:03;8.80;99.90
4811;DHT22;2419;51.276;6.472;2022-11-18T07:31:31;8.80;99.90
4811;DHT22;2419;51.276;6.472;2022-11-18T07:34:02;8.90;99.90
4811;DHT22;2419;51.276;6.472;2022-11-18T07:36:31;8.90;99.90
4811;DHT22;2419;51.276;6.472;2022-11-18T07:39:03;9.00;99.90
4811;DHT22;2419;51.276;6.472;2022-11-18T07:41:32;9.00;99.90
4811;DHT22;2419;51.276;6.472;2022-11-18T07:44:02;9.10;99.90
4811;DHT22;2419;51.276;6.472;2022-11-18T07:46:32;9.10;99.90
4811;DHT22;2419;51.276;6.472;2022-11-18T07:49:03;9.10;99.90
4811;DHT22;2419;51.276;6.472;2022-11-18T07:51:34;9.10;99.90
4811;DHT22;2419;51.276;6.472;2022-11-18T07:54:05;9.10;99.90
4811;DHT22;2419;51.276;6.472;2022-11-18T07:56:33;9.10;99.90
4811;DHT22;2419;51.276;6.472;2022-11-18T07:59:02;9.00;99.90
4811;DHT22;2419;51.276;6.472;2022-11-18T08:01:30;9.10;99.90
4811;DHT22;2419;51.276;6.472;2022-11-18T08:04:06;9.20;99.90
4811;DHT22;2419;51.276;6.472;2022-11-18T08:06:34;9.50;99.90
4811;DHT22;2419;51.276;6.472;2022-11-18T08:09:04;9.80;99.90
4811;DHT22;2419;51.276;6.472;2022-11-18T08:11:33;10.30;99.90
4811;DHT22;2419;51.276;6.472;2022-11-18T08:14:01;10.60;99.90
4811;DHT22;2419;51.276;6.472;2022-11-18T08:16:29;10.60;99.90
4811;DHT22;2419;51.276;6.472;2022-11-18T08:18:58;10.40;99.90
4811;DHT22;2419;51.276;6.472;2022-11-18T08:21:28;10.30;99.90
4811;DHT22;2419;51.276;6.472;2022-11-18T08:23:57;10.50;99.90
4811;DHT22;2419;51.276;6.472;2022-11-18T08:26:25;10.80;99.90
4811;DHT22;2419;51.276;6.472;2022-11-18T08:28:53;10.70;99.90
4811;DHT22;2419;51.276;6.472;2022-11-18T08:31:24;10.60;99.90
4811;DHT22;2419;51.276;6.472;2022-11-18T08:33:55;10.50;99.90
4811;DHT22;2419;51.276;6.472;2022-11-18T08:36:25;10.30;99.90
4811;DHT22;2419;51.276;6.472;2022-11-18T08:38:57;10.00;99.90
4811;DHT22;2419;51.276;6.472;2022-11-18T08:41:30;10.10;99.90
4811;DHT22;2419;51.276;6.472;2022-11-18T08:43:59;10.20;99.90
4811;DHT22;2419;51.276;6.472;2022-11-18T08:46:27;10.30;99.90
4811;DHT22;2419;51.276;6.472;2022-11-18T08:48:56;10.50;99.90
4811;DHT22;2419;51.276;6.472;2022-11-18T08:51:24;10.80;99.90
4811;DHT22;2419;51.276;6.472;2022-11-18T08:53:54;11.00;99.90
4811;DHT22;2419;51.276;6.472;2022-11-18T08:56:23;11.10;99.90
4811;DHT22;2419;51.276;6.472;2022-11-18T08:58:52;11.10;99.90
4811;DHT22;2419;51.276;6.472;2022-11-18T09:01:20;11.20;99.90
4811;DHT22;2419;51.276;6.472;2022-11-18T09:03:49;11.40;99.90
4811;DHT22;2419;51.276;6.472;2022-11-18T09:06:19;12.50;99.90
4811;DHT22;2419;51.276;6.472;2022-11-18T09:08:48;12.60;99.90
4811;DHT22;2419;51.276;6.472;2022-11-18T09:11:19;12.40;99.90
4811;DHT22;2419;51.276;6.472;2022-11-18T09:13:51;13.90;99.90
4811;DHT22;2419;51.276;6.472;2022-11-18T09:16:39;15.20;99.90
4811;DHT22;2419;51.276;6.472;2022-11-18T09:19:07;16.90;99.90
4811;DHT22;2419;51.276;6.472;2022-11-18T09:21:55;15.60;99.90
4811;DHT22;2419;51.276;6.472;2022-11-18T09:24:23;14.30;99.90
4811;DHT22;2419;51.276;6.472;2022-11-18T09:26:53;14.20;99.90
4811;DHT22;2419;51.276;6.472;2022-11-18T09:29:21;14.10;99.90
4811;DHT22;2419;51.276;6.472;2022-11-18T09:31:52;13.50;99.90
4811;DHT22;2419;51.276;6.472;2022-11-18T09:34:20;14.10;99.90
4811;DHT22;2419;51.276;6.472;2022-11-18T09:36:49;13.30;99.90
4811;DHT22;2419;51.276;6.472;2022-11-18T09:39:22;12.60;99.90
4811;DHT22;2419;51.276;6.472;2022-11-18T09:41:59;12.10;99.90
4811;DHT22;2419;51.276;6.472;2022-11-18T09:44:44;12.00;99.90
4811;DHT22;2419;51.276;6.472;2022-11-18T09:47:24;11.80;99.90
4811;DHT22;2419;51.276;6.472;2022-11-18T09:49:53;11.90;99.90
4811;DHT22;2419;51.276;6.472;2022-11-18T09:52:26;12.20;99.90
4811;DHT22;2419;51.276;6.472;2022-11-18T09:55:03;12.20;99.90
4811;DHT22;2419;51.276;6.472;2022-11-18T09:57:37;12.50;99.90
4811;DHT22;2419;51.276;6.472;2022-11-18T10:00:13;12.50;99.90
4811;DHT22;2419;51.276;6.472;2022-11-18T10:02:50;12.60;99.90
4811;DHT22;2419;51.276;6.472;2022-11-18T10:05:21;12.50;99.90
4811;DHT22;2419;51.276;6.472;2022-11-18T10:07:58;12.50;99.90
4811;DHT22;2419;51.276;6.472;2022-11-18T10:10:37;12.80;99.90
4811;DHT22;2419;51.276;6.472;2022-11-18T10:13:15;13.50;99.90
4811;DHT22;2419;51.276;6.472;2022-11-18T10:15:52;13.10;99.90
4811;DHT22;2419;51.276;6.472;2022-11-18T10:18:27;13.60;99.90
4811;DHT22;2419;51.276;6.472;2022-11-18T10:21:22;13.70;99.90
4811;DHT22;2419;51.276;6.472;2022-11-18T10:23:59;14.00;99.90
4811;DHT22;2419;51.276;6.472;2022-11-18T10:26:33;13.50;99.90
4811;DHT22;2419;51.276;6.472;2022-11-18T10:29:03;14.10;99.90
4811;DHT22;2419;51.276;6.472;2022-11-18T10:31:36;15.60;99.90
4811;DHT22;2419;51.276;6.472;2022-11-18T10:34:09;16.80;99.90
4811;DHT22;2419;51.276;6.472;2022-11-18T10:36:37;16.90;99.90
4811;DHT22;2419;51.276;6.472;2022-11-18T10:39:07;16.60;99.90
4811;DHT22;2419;51.276;6.472;2022-11-18T10:41:42;17.40;98.80
4811;DHT22;2419;51.276;6.472;2022-11-18T10:44:33;17.70;97.90
4811;DHT22;2419;51.276;6.472;2022-11-18T10:47:25;16.70;99.00
4811;DHT22;2419;51.276;6.472;2022-11-18T10:49:55;16.50;99.50
4811;DHT22;2419;51.276;6.472;2022-11-18T10:52:24;16.10;99.80
4811;DHT22;2419;51.276;6.472;2022-11-18T10:55:08;15.40;99.90
4811;DHT22;2419;51.276;6.472;2022-11-18T10:57:45;14.50;99.90
4811;DHT22;2419;51.276;6.472;2022-11-18T11:00:42;13.80;99.90
4811;DHT22;2419;51.276;6.472;2022-11-18T11:03:25;12.80;99.90
4811;DHT22;2419;51.276;6.472;2022-11-18T11:06:27;12.40;99.90
4811;DHT22;2419;51.276;6.472;2022-11-18T11:08:58;12.60;99.90
4811;DHT22;2419;51.276;6.472;2022-11-18T11:11:28;12.80;99.90
4811;DHT22;2419;51.276;6.472;2022-11-18T11:14:04;12.60;99.90
4811;DHT22;2419;51.276;6.472;2022-11-18T11:16:42;12.30;99.90
4811;DHT22;2419;51.276;6.472;2022-11-18T11:19:13;12.00;99.90
4811;DHT22;2419;51.276;6.472;2022-11-18T11:21:44;11.80;99.90
4811;DHT22;2419;51.276;6.472;2022-11-18T11:24:12;11.80;99.90
4811;DHT22;2419;51.276;6.472;2022-11-18T11:26:50;12.40;99.90
4811;DHT22;2419;51.276;6.472;2022-11-18T11:29:54;12.70;99.90
4811;DHT22;2419;51.276;6.472;2022-11-18T11:32:36;13.20;99.90
4811;DHT22;2419;51.276;6.472;2022-11-18T11:35:12;13.60;99.90
4811;DHT22;2419;51.276;6.472;2022-11-18T11:37:50;14.10;99.90
4811;DHT22;2419;51.276;6.472;2022-11-18T11:40:26;13.60;99.90
4811;DHT22;2419;51.276;6.472;2022-11-18T11:46:00;13.70;99.90
4811;DHT22;2419;51.276;6.472;2022-11-18T11:48:41;13.80;99.90
4811;DHT22;2419;51.276;6.472;2022-11-18T11:51:17;13.60;99.90
4811;DHT22;2419;51.276;6.472;2022-11-18T11:56:50;13.70;99.90
4811;DHT22;2419;51.276;6.472;2022-11-18T11:59:27;13.40;99.90
4811;DHT22;2419;51.276;6.472;2022-11-18T12:02:22;12.70;99.90
4811;DHT22;2419;51.276;6.472;2022-11-18T12:04:56;13.50;99.90
4811;DHT22;2419;51.276;6.472;2022-11-18T12:07:29;15.00;99.90
4811;DHT22;2419;51.276;6.472;2022-11-18T12:10:15;15.10;99.90
4811;DHT22;2419;51.276;6.472;2022-11-18T12:12:52;15.40;99.90
4811;DHT22;2419;51.276;6.472;2022-11-18T12:15:41;15.00;99.90
4811;DHT22;2419;51.276;6.472;2022-11-18T12:18:16;14.80;99.90
4811;DHT22;2419;51.276;6.472;2022-11-18T12:20:53;14.50;99.90
4811;DHT22;2419;51.276;6.472;2022-11-18T12:23:25;13.80;99.90
4811;DHT22;2419;51.276;6.472;2022-11-18T12:28:33;13.20;99.90
4811;DHT22;2419;51.276;6.472;2022-11-18T12:31:33;13.30;99.90
4811;DHT22;2419;51.276;6.472;2022-11-18T12:34:18;13.40;99.90
4811;DHT22;2419;51.276;6.472;2022-11-18T12:36:48;12.80;99.90
4811;DHT22;2419;51.276;6.472;2022-11-18T12:42:38;13.50;99.90
4811;DHT22;2419;51.276;6.472;2022-11-18T12:45:50;14.20;99.90
4811;DHT22;2419;51.276;6.472;2022-11-18T12:48:36;14.10;99.90
4811;DHT22;2419;51.276;6.472;2022-11-18T12:54:32;13.80;99.90
4811;DHT22;2419;51.276;6.472;2022-11-18T12:57:03;13.50;99.90
4811;DHT22;2419;51.276;6.472;2022-11-18T12:59:38;13.60;99.90
4811;DHT22;2419;51.276;6.472;2022-11-18T13:02:19;13.80;99.90
4811;DHT22;2419;51.276;6.472;2022-11-18T13:05:05;13.80;99.90
4811;DHT22;2419;51.276;6.472;2022-11-18T13:07:40;13.20;99.90
4811;DHT22;2419;51.276;6.472;2022-11-18T13:10:31;13.30;99.90
4811;DHT22;2419;51.276;6.472;2022-11-18T13:13:01;13.20;99.90
4811;DHT22;2419;51.276;6.472;2022-11-18T13:15:30;13.10;99.90
4811;DHT22;2419;51.276;6.472;2022-11-18T13:18:17;12.80;99.90
4811;DHT22;2419;51.276;6.472;2022-11-18T13:20:54;12.10;99.90
4811;DHT22;2419;51.276;6.472;2022-11-18T13:23:26;11.80;99.90
4811;DHT22;2419;51.276;6.472;2022-11-18T13:26:18;11.50;11.20
4811;DHT22;2419;51.276;6.472;2022-11-18T13:29:06;11.60;7.30
4811;DHT22;2419;51.276;6.472;2022-11-18T13:31:41;11.60;1.00
4811;DHT22;2419;51.276;6.472;2022-11-18T13:34:17;11.60;23.90
4811;DHT22;2419;51.276;6.472;2022-11-18T13:36:47;11.60;3.90
4811;DHT22;2419;51.276;6.472;2022-11-18T13:39:19;11.60;17.60
4811;DHT22;2419;51.276;6.472;2022-11-18T13:41:59;11.60;34.00
4811;DHT22;2419;51.276;6.472;2022-11-18T13:44:29;11.50;27.50
4811;DHT22;2419;51.276;6.472;2022-11-18T13:47:06;11.50;35.60
4811;DHT22;2419;51.276;6.472;2022-11-18T13:49:50;11.40;48.40
4811;DHT22;2419;51.276;6.472;2022-11-18T13:52:22;11.40;64.60
4811;DHT22;2419;51.276;6.472;2022-11-18T13:54:51;11.50;55.90
4811;DHT22;2419;51.276;6.472;2022-11-18T13:57:23;11.60;55.40
4811;DHT22;2419;51.276;6.472;2022-11-18T13:59:52;11.50;51.30
4811;DHT22;2419;51.276;6.472;2022-11-18T14:02:22;11.60;61.80
4811;DHT22;2419;51.276;6.472;2022-11-18T14:04:53;11.60;50.60
4811;DHT22;2419;51.276;6.472;2022-11-18T14:07:30;11.70;49.10
4811;DHT22;2419;51.276;6.472;2022-11-18T14:10:00;11.70;41.60
4811;DHT22;2419;51.276;6.472;2022-11-18T14:12:31;11.60;53.00
4811;DHT22;2419;51.276;6.472;2022-11-18T14:15:20;11.60;46.60
4811;DHT22;2419;51.276;6.472;2022-11-18T14:17:50;11.60;52.20
4811;DHT22;2419;51.276;6.472;2022-11-18T14:20:18;11.60;55.50
4811;DHT22;2419;51.276;6.472;2022-11-18T14:22:50;11.60;53.40
4811;DHT22;2419;51.276;6.472;2022-11-18T14:25:23;11.50;60.10
4811;DHT22;2419;51.276;6.472;2022-11-18T14:27:54;11.50;70.20
4811;DHT22;2419;51.276;6.472;2022-11-18T14:30:34;11.40;76.00
4811;DHT22;2419;51.276;6.472;2022-11-18T14:33:16;11.40;74.40
4811;DHT22;2419;51.276;6.472;2022-11-18T14:35:52;11.20;91.70
4811;DHT22;2419;51.276;6.472;2022-11-18T14:38:23;11.20;92.00
4811;DHT22;2419;51.276;6.472;2022-11-18T14:41:14;11.20;92.90
4811;DHT22;2419;51.276;6.472;2022-11-18T14:43:47;11.10;96.50
4811;DHT22;2419;51.276;6.472;2022-11-18T14:46:17;11.00;97.60
4811;DHT22;2419;51.276;6.472;2022-11-18T14:48:47;10.90;99.90
4811;DHT22;2419;51.276;6.472;2022-11-18T14:51:15;10.80;99.90
4811;DHT22;2419;51.276;6.472;2022-11-18T14:53:44;10.80;99.90
4811;DHT22;2419;51.276;6.472;2022-11-18T14:56:16;10.70;99.90
4811;DHT22;2419;51.276;6.472;2022-11-18T14:58:47;10.70;99.90
4811;DHT22;2419;51.276;6.472;2022-11-18T15:01:15;10.70;99.90
4811;DHT22;2419;51.276;6.472;2022-11-18T15:03:43;10.60;99.90
4811;DHT22;2419;51.276;6.472;2022-11-18T15:06:12;10.60;99.90
4811;DHT22;2419;51.276;6.472;2022-11-18T15:08:42;10.60;99.90
4811;DHT22;2419;51.276;6.472;2022-11-18T15:11:11;10.50;99.90
4811;DHT22;2419;51.276;6.472;2022-11-18T15:13:39;10.50;99.90
4811;DHT22;2419;51.276;6.472;2022-11-18T15:16:15;10.50;99.90
4811;DHT22;2419;51.276;6.472;2022-11-18T15:18:45;10.50;99.90
4811;DHT22;2419;51.276;6.472;2022-11-18T15:21:14;10.40;99.90
4811;DHT22;2419;51.276;6.472;2022-11-18T15:23:43;10.40;99.90
4811;DHT22;2419;51.276;6.472;2022-11-18T15:26:17;10.40;99.90
4811;DHT22;2419;51.276;6.472;2022-11-18T15:28:46;10.30;99.90
4811;DHT22;2419;51.276;6.472;2022-11-18T15:31:17;10.20;99.90
4811;DHT22;2419;51.276;6.472;2022-11-18T15:33:45;10.20;99.90
4811;DHT22;2419;51.276;6.472;2022-11-18T15:36:15;10.20;99.90
4811;DHT22;2419;51.276;6.472;2022-11-18T15:38:45;10.20;99.90
4811;DHT22;2419;51.276;6.472;2022-11-18T15:41:15;10.10;99.90
4811;DHT22;2419;51.276;6.472;2022-11-18T15:43:44;10.10;99.90
4811;DHT22;2419;51.276;6.472;2022-11-18T15:46:13;10.00;99.90
4811;DHT22;2419;51.276;6.472;2022-11-18T15:48:42;10.00;99.90
4811;DHT22;2419;51.276;6.472;2022-11-18T15:51:10;10.00;99.90
4811;DHT22;2419;51.276;6.472;2022-11-18T15:53:39;9.90;99.90
4811;DHT22;2419;51.276;6.472;2022-11-18T15:56:23;9.90;99.90
4811;DHT22;2419;51.276;6.472;2022-11-18T15:58:52;9.80;99.90
4811;DHT22;2419;51.276;6.472;2022-11-18T16:01:23;9.80;99.90
4811;DHT22;2419;51.276;6.472;2022-11-18T16:03:53;9.80;99.90
4811;DHT22;2419;51.276;6.472;2022-11-18T16:06:22;9.80;99.90
4811;DHT22;2419;51.276;6.472;2022-11-18T16:08:51;9.70;99.90
4811;DHT22;2419;51.276;6.472;2022-11-18T16:11:25;9.80;99.90
4811;DHT22;2419;51.276;6.472;2022-11-18T16:14:12;9.80;99.90
4811;DHT22;2419;51.276;6.472;2022-11-18T16:16:42;9.80;99.90
4811;DHT22;2419;51.276;6.472;2022-11-18T16:19:13;9.70;99.90
4811;DHT22;2419;51.276;6.472;2022-11-18T16:21:43;9.70;99.90
4811;DHT22;2419;51.276;6.472;2022-11-18T16:24:14;9.70;99.90
4811;DHT22;2419;51.276;6.472;2022-11-18T16:26:43;9.60;99.90
4811;DHT22;2419;51.276;6.472;2022-11-18T16:29:11;9.40;99.90
4811;DHT22;2419;51.276;6.472;2022-11-18T16:31:41;9.40;99.90
4811;DHT22;2419;51.276;6.472;2022-11-18T16:34:12;9.30;99.90
4811;DHT22;2419;51.276;6.472;2022-11-18T16:36:41;9.30;99.90
4811;DHT22;2419;51.276;6.472;2022-11-18T16:39:12;9.40;99.90
4811;DHT22;2419;51.276;6.472;2022-11-18T16:41:42;9.50;99.90
4811;DHT22;2419;51.276;6.472;2022-11-18T16:44:12;9.50;99.90
4811;DHT22;2419;51.276;6.472;2022-11-18T16:46:43;9.50;99.90
4811;DHT22;2419;51.276;6.472;2022-11-18T16:49:15;9.50;99.90
4811;DHT22;2419;51.276;6.472;2022-11-18T16:51:45;9.50;99.90
4811;DHT22;2419;51.276;6.472;2022-11-18T16:54:15;9.50;99.90
4811;DHT22;2419;51.276;6.472;2022-11-18T16:56:45;9.40;99.90
4811;DHT22;2419;51.276;6.472;2022-11-18T16:59:15;9.40;99.90
4811;DHT22;2419;51.276;6.472;2022-11-18T17:01:44;9.30;99.90
4811;DHT22;2419;51.276;6.472;2022-11-18T17:04:14;9.20;99.90
4811;DHT22;2419;51.276;6.472;2022-11-18T17:06:42;9.20;99.90
4811;DHT22;2419;51.276;6.472;2022-11-18T17:09:13;9.20;99.90
4811;DHT22;2419;51.276;6.472;2022-11-18T17:11:42;9.20;99.90
4811;DHT22;2419;51.276;6.472;2022-11-18T17:14:10;9.20;99.90
4811;DHT22;2419;51.276;6.472;2022-11-18T17:16:39;9.30;99.90
4811;DHT22;2419;51.276;6.472;2022-11-18T17:19:11;9.30;99.90
4811;DHT22;2419;51.276;6.472;2022-11-18T17:21:41;9.20;99.90
4811;DHT22;2419;51.276;6.472;2022-11-18T17:24:12;9.10;99.90
4811;DHT22;2419;51.276;6.472;2022-11-18T17:26:40;9.10;99.90
4811;DHT22;2419;51.276;6.472;2022-11-18T17:29:09;9.00;99.90